Time;durP1;ratioP1;P1;durP2;ratioP2;P2;SDS_P1;SDS_P2;PMS_P1;PMS_P2;Temp;Humidity;BMP_temperature;BMP_pressure;BME280_temperature;BME280_humidity;BME280_pressure;Samples;Min_cycle;Max_cycle;Signal;HPM_P1;HPM_P2
2022/03/12 00:00:10;;;;;;;9.05;6.50;;;;;;;10.58;22.38;100933.88;687420;28;1173;-85
2022/03/12 00:00:37;;;;;;;10.10;6.70;;;;;;;10.51;22.61;100926.69;690507;28;889;-85
2022/03/12 00:00:59;;;;;;;10.02;6.70;;;;;;;10.56;22.19;100927.69;693317;28;1247;-86
2022/03/12 00:01:21;;;;;;;10.65;6.80;;;;;;;10.56;22.21;100935.53;690324;28;1307;-86
2022/03/12 00:01:42;;;;;;;11.13;6.50;;;;;;;10.51;22.67;100924.09;693326;28;1212;-86
2022/03/12 00:02:03;;;;;;;11.55;6.68;;;;;;;10.47;22.34;100914.38;690423;28;1027;-85
2022/03/12 00:02:24;;;;;;;8.93;6.50;;;;;;;10.47;22.37;100914.38;688022;28;835;-85
2022/03/12 00:02:44;;;;;;;9.15;6.80;;;;;;;10.54;22.40;100929.38;690529;28;1336;-86
2022/03/12 00:03:08;;;;;;;9.17;6.80;;;;;;;10.47;22.45;100930.03;690502;28;1260;-86
2022/03/12 00:03:30;;;;;;;9.13;6.43;;;;;;;10.46;22.27;100923.03;692500;28;1379;-86
2022/03/12 00:04:06;;;;;;;9.68;6.13;;;;;;;10.46;22.35;100926.56;690506;28;1301;-86
2022/03/12 00:04:29;;;;;;;13.65;6.60;;;;;;;10.42;22.56;100932.50;691903;28;1561;-85
2022/03/12 00:04:50;;;;;;;13.52;7.10;;;;;;;10.46;22.47;100938.69;693456;28;885;-85
2022/03/12 00:05:11;;;;;;;9.80;6.90;;;;;;;10.43;22.36;100934.25;693136;28;1115;-85
2022/03/12 00:05:47;;;;;;;9.27;6.97;;;;;;;10.36;22.57;100925.38;693318;28;1301;-85
2022/03/12 00:06:09;;;;;;;8.95;6.80;;;;;;;10.39;22.85;100933.28;690553;28;1295;-85
2022/03/12 00:06:30;;;;;;;9.68;7.25;;;;;;;10.34;22.52;100921.84;693187;28;1214;-86
2022/03/12 00:06:50;;;;;;;10.10;7.03;;;;;;;10.39;22.64;100933.28;692929;28;1009;-85
2022/03/12 00:07:12;;;;;;;10.50;6.87;;;;;;;10.32;22.55;100926.09;689679;28;1298;-85
2022/03/12 00:07:35;;;;;;;11.80;6.57;;;;;;;10.34;22.73;100937.50;687748;28;1186;-85
2022/03/12 00:08:02;;;;;;;14.48;6.72;;;;;;;10.26;22.71;100923.31;687924;28;880;-86
2022/03/12 00:08:46;;;;;;;13.27;7.00;;;;;;;10.28;23.08;100929.47;688176;28;1035;-85
2022/03/12 00:09:35;;;;;;;11.38;6.80;;;;;;;10.27;22.91;100943.34;692780;28;1168;-87
2022/03/12 00:09:57;;;;;;;11.25;6.55;;;;;;;10.13;23.02;100925.50;690304;28;1148;-85
2022/03/12 00:10:23;;;;;;;9.80;6.70;;;;;;;10.22;23.10;100944.88;691317;28;1066;-85
2022/03/12 00:10:50;;;;;;;11.00;7.28;;;;;;;10.20;23.02;100936.13;695833;28;1208;-85
2022/03/12 00:11:13;;;;;;;12.07;7.15;;;;;;;10.14;22.95;100929.88;693006;28;972;-86
2022/03/12 00:11:34;;;;;;;11.05;7.00;;;;;;;10.18;22.94;100935.19;690553;28;776;-85
2022/03/12 00:11:58;;;;;;;10.00;7.05;;;;;;;10.09;22.86;100923.59;693464;28;771;-86
2022/03/12 00:12:19;;;;;;;9.73;7.07;;;;;;;10.06;22.92;100920.91;693634;28;1258;-84
2022/03/12 00:12:42;;;;;;;7.70;6.82;;;;;;;10.08;23.15;100916.63;693250;28;1977;-85
2022/03/12 00:13:02;;;;;;;8.77;6.90;;;;;;;10.07;23.22;100914.84;690500;28;1053;-86
2022/03/12 00:13:24;;;;;;;10.60;6.50;;;;;;;10.15;23.02;100936.84;693289;28;1180;-86
2022/03/12 00:13:46;;;;;;;10.98;6.60;;;;;;;10.08;22.99;100921.84;690575;28;1255;-86
2022/03/12 00:14:07;;;;;;;11.25;6.63;;;;;;;10.05;23.18;100916.53;695867;28;1450;-86
2022/03/12 00:14:31;;;;;;;9.32;6.68;;;;;;;10.04;23.16;100925.19;693273;28;1110;-86
2022/03/12 00:14:52;;;;;;;11.10;6.95;;;;;;;10.04;23.27;100933.00;692866;28;949;-85
2022/03/12 00:15:14;;;;;;;11.57;6.80;;;;;;;10.00;23.23;100928.53;690305;28;1180;-85
2022/03/12 00:15:37;;;;;;;12.23;7.05;;;;;;;10.03;23.26;100939.06;693854;28;1277;-86
2022/03/12 00:15:59;;;;;;;9.93;6.90;;;;;;;10.01;23.11;100940.72;691074;28;890;-85
2022/03/12 00:16:26;;;;;;;8.32;6.70;;;;;;;9.98;23.04;100941.53;688282;28;1474;-86
2022/03/12 00:16:49;;;;;;;8.15;6.45;;;;;;;9.90;23.18;100929.97;691153;28;1265;-85
2022/03/12 00:17:12;;;;;;;10.10;6.70;;;;;;;9.91;23.26;100936.94;690917;28;1238;-85
2022/03/12 00:17:33;;;;;;;12.02;7.07;;;;;;;9.94;23.46;100933.56;691257;28;810;-85
2022/03/12 00:17:54;;;;;;;14.00;7.40;;;;;;;9.81;23.13;100917.50;691093;28;1271;-86
2022/03/12 00:18:19;;;;;;;11.97;7.47;;;;;;;9.93;23.41;100934.38;688264;28;1085;-86
2022/03/12 00:18:42;;;;;;;11.88;7.25;;;;;;;9.93;23.40;100930.06;691066;28;1336;-86
2022/03/12 00:19:05;;;;;;;10.20;7.25;;;;;;;9.91;23.46;100917.78;693701;28;1062;-86
2022/03/12 00:19:27;;;;;;;10.27;6.95;;;;;;;9.94;23.34;100923.13;690855;28;1206;-85
2022/03/12 00:19:48;;;;;;;9.40;6.78;;;;;;;9.87;23.38;100917.72;685360;28;1181;-86
2022/03/12 00:20:12;;;;;;;9.20;6.70;;;;;;;9.86;23.40;100915.94;688259;28;1204;-86
2022/03/12 00:20:33;;;;;;;7.82;6.35;;;;;;;9.86;23.53;100915.94;690180;28;1124;-85
2022/03/12 00:20:58;;;;;;;7.65;6.00;;;;;;;9.92;23.72;100925.69;691160;28;1204;-86
2022/03/12 00:21:21;;;;;;;9.05;6.10;;;;;;;9.77;23.53;100915.59;690959;28;1372;-85
2022/03/12 00:21:42;;;;;;;11.70;6.45;;;;;;;9.77;23.51;100913.00;691097;28;1196;-85
2022/03/12 00:22:04;;;;;;;11.23;6.63;;;;;;;9.79;23.37;100913.97;699194;28;1335;-85
2022/03/12 00:22:27;;;;;;;11.63;6.55;;;;;;;9.76;23.62;100918.19;696575;28;1108;-86
2022/03/12 00:22:51;;;;;;;11.13;6.72;;;;;;;9.75;23.67;100906.84;693973;28;848;-85
2022/03/12 00:23:16;;;;;;;11.45;7.07;;;;;;;9.78;23.57;100917.41;690776;28;1127;-85
2022/03/12 00:23:37;;;;;;;10.80;7.05;;;;;;;9.77;23.68;100909.53;693738;28;1135;-86
2022/03/12 00:24:00;;;;;;;9.20;7.05;;;;;;;9.75;23.50;100912.06;696671;28;818;-86
2022/03/12 00:24:27;;;;;;;7.47;6.68;;;;;;;9.78;23.82;100922.63;693681;28;1222;-84
2022/03/12 00:24:48;;;;;;;7.70;6.88;;;;;;;9.76;23.60;100913.84;691160;28;922;-86
2022/03/12 00:25:10;;;;;;;8.10;7.03;;;;;;;9.80;23.31;100914.81;688259;28;1280;-86
2022/03/12 00:25:31;;;;;;;9.05;6.75;;;;;;;9.78;23.69;100911.28;693603;28;1370;-86
2022/03/12 00:25:52;;;;;;;9.98;6.85;;;;;;;9.83;23.77;100921.03;693929;28;1320;-85
2022/03/12 00:26:14;;;;;;;9.77;6.70;;;;;;;9.83;23.38;100928.84;690915;28;1133;-86
2022/03/12 00:26:40;;;;;;;9.55;6.80;;;;;;;9.84;23.64;100925.41;688554;28;827;-85
2022/03/12 00:27:01;;;;;;;9.82;6.65;;;;;;;9.82;23.68;100919.25;691141;28;1286;-86
2022/03/12 00:27:21;;;;;;;9.50;6.55;;;;;;;9.85;23.55;100924.56;690880;28;1293;-85
2022/03/12 00:27:44;;;;;;;9.93;6.33;;;;;;;9.84;23.48;100922.78;693813;28;1198;-85
2022/03/12 00:28:08;;;;;;;8.35;6.18;;;;;;;9.86;23.53;100928.06;693041;28;1373;-86
2022/03/12 00:28:54;;;;;;;10.32;6.40;;;;;;;9.92;23.69;100940.41;693726;28;1241;-86
2022/03/12 00:29:15;;;;;;;9.35;6.10;;;;;;;9.87;23.24;100933.34;690834;28;1244;-85
2022/03/12 00:29:36;;;;;;;8.90;6.00;;;;;;;9.81;23.54;100917.50;690668;28;1300;-86
2022/03/12 00:29:57;;;;;;;9.73;6.60;;;;;;;9.89;23.63;100927.28;690762;28;1216;-85
2022/03/12 00:30:22;;;;;;;9.33;6.50;;;;;;;9.91;23.36;100928.22;690835;28;1171;-86
2022/03/12 00:30:45;;;;;;;10.55;7.10;;;;;;;9.89;23.30;100925.56;688373;28;795;-85
2022/03/12 00:31:06;;;;;;;10.80;7.40;;;;;;;9.90;23.62;100929.06;688183;28;1275;-86
2022/03/12 00:31:27;;;;;;;10.57;6.90;;;;;;;9.90;23.32;100929.97;690849;28;1301;-86
2022/03/12 00:31:50;;;;;;;10.63;6.70;;;;;;;9.91;23.65;100936.94;691129;28;767;-86
2022/03/12 00:32:12;;;;;;;10.88;6.85;;;;;;;9.89;23.45;100924.69;690233;28;1025;-86
2022/03/12 00:32:36;;;;;;;11.13;6.80;;;;;;;9.92;23.19;100930.00;688359;28;1320;-85
2022/03/12 00:32:57;;;;;;;8.98;6.35;;;;;;;9.88;23.34;100926.41;688417;28;838;-86
2022/03/12 00:33:20;;;;;;;8.90;6.15;;;;;;;9.89;23.83;100925.56;690965;28;1394;-86
2022/03/12 00:33:40;;;;;;;8.70;6.45;;;;;;;9.94;23.60;100933.56;693726;28;1233;-85
2022/03/12 00:34:01;;;;;;;15.87;7.10;;;;;;;9.94;23.40;100928.34;691064;28;1037;-86
2022/03/12 00:34:22;;;;;;;15.43;7.07;;;;;;;9.99;23.61;100932.88;693571;28;1307;-85
2022/03/12 00:34:43;;;;;;;14.85;6.80;;;;;;;9.97;23.45;100925.81;693775;28;1208;-85
2022/03/12 00:35:04;;;;;;;8.20;6.50;;;;;;;10.03;23.32;100932.97;690859;28;1310;-85
2022/03/12 00:35:25;;;;;;;8.40;6.47;;;;;;;9.94;23.10;100928.34;690998;28;1276;-86
2022/03/12 00:35:48;;;;;;;9.13;6.70;;;;;;;9.94;23.35;100913.56;693793;28;1272;-85
2022/03/12 00:36:09;;;;;;;9.00;6.80;;;;;;;9.97;23.48;100915.41;690882;28;1158;-86
2022/03/12 00:36:29;;;;;;;10.05;6.70;;;;;;;10.06;23.24;100933.94;693708;28;1266;-86
2022/03/12 00:36:50;;;;;;;9.55;6.35;;;;;;;10.07;23.43;100934.84;696469;28;823;-85
2022/03/12 00:37:11;;;;;;;11.60;6.60;;;;;;;10.01;23.28;100918.16;691131;28;1176;-85
2022/03/12 00:37:31;;;;;;;9.80;6.50;;;;;;;10.10;22.81;100929.72;688342;28;1307;-86
2022/03/12 00:37:52;;;;;;;12.13;6.50;;;;;;;10.10;23.18;100920.19;688282;28;1151;-85
2022/03/12 00:38:14;;;;;;;10.50;6.30;;;;;;;10.07;23.25;100914.84;690525;28;1261;-86
2022/03/12 00:38:35;;;;;;;11.05;6.50;;;;;;;10.19;23.20;100930.00;693654;28;1401;-85
2022/03/12 00:38:55;;;;;;;7.80;6.70;;;;;;;10.11;22.94;100914.13;693665;28;1118;-86
2022/03/12 00:39:16;;;;;;;8.80;6.70;;;;;;;10.15;22.87;100917.72;693522;28;1387;-86
2022/03/12 00:39:37;;;;;;;8.63;6.60;;;;;;;10.22;22.96;100931.84;690614;28;1468;-86
2022/03/12 00:39:57;;;;;;;8.98;6.80;;;;;;;10.18;22.84;100919.56;693664;28;1208;-86
2022/03/12 00:40:20;;;;;;;9.10;7.00;;;;;;;10.21;22.88;100927.47;695842;28;1149;-85
2022/03/12 00:40:41;;;;;;;9.63;6.95;;;;;;;10.30;22.95;100932.13;690949;28;1172;-85
2022/03/12 00:41:05;;;;;;;10.32;6.72;;;;;;;10.24;23.06;100919.75;691061;28;806;-85
2022/03/12 00:41:29;;;;;;;11.57;7.00;;;;;;;10.27;23.04;100925.09;691012;28;901;-85
2022/03/12 00:41:49;;;;;;;11.82;7.00;;;;;;;10.24;22.72;100918.03;696494;28;826;-85
2022/03/12 00:42:12;;;;;;;10.27;6.68;;;;;;;10.32;22.62;100933.06;693756;28;1466;-85
2022/03/12 00:42:32;;;;;;;11.10;6.60;;;;;;;10.26;22.88;100920.72;690920;28;1332;-85
2022/03/12 00:42:53;;;;;;;10.07;6.90;;;;;;;10.35;22.68;100931.44;690945;28;1310;-86
2022/03/12 00:43:14;;;;;;;9.80;7.10;;;;;;;10.37;22.97;100924.53;696432;28;1108;-85
2022/03/12 00:43:35;;;;;;;8.77;6.93;;;;;;;10.28;22.66;100914.69;693762;28;1279;-85
2022/03/12 00:43:55;;;;;;;9.15;6.80;;;;;;;10.35;22.99;100915.78;690183;28;1150;-86
2022/03/12 00:44:22;;;;;;;9.67;6.70;;;;;;;10.43;22.63;100929.03;688234;28;1069;-86
2022/03/12 00:44:42;;;;;;;9.68;6.75;;;;;;;10.44;22.75;100924.72;688240;28;1425;-85
2022/03/12 00:45:03;;;;;;;8.90;6.47;;;;;;;10.41;22.86;100922.91;691061;28;1083;-85
2022/03/12 00:45:24;;;;;;;9.38;6.35;;;;;;;10.45;22.67;100927.34;691016;28;1192;-85
2022/03/12 00:45:46;;;;;;;8.23;6.03;;;;;;;10.47;22.59;100932.63;690053;28;1117;-84
2022/03/12 00:46:07;;;;;;;8.30;6.40;;;;;;;10.38;22.69;100922.81;688111;28;1319;-85
2022/03/12 00:46:28;;;;;;;7.83;6.50;;;;;;;10.46;22.56;100928.25;693680;28;986;-85
2022/03/12 00:46:49;;;;;;;9.32;6.95;;;;;;;10.45;22.64;100931.72;691239;28;862;-85
2022/03/12 00:47:10;;;;;;;9.30;6.65;;;;;;;10.38;22.85;100931.50;690902;28;1086;-85
2022/03/12 00:47:31;;;;;;;8.03;6.53;;;;;;;10.32;22.71;100926.09;693760;28;1160;-85
2022/03/12 00:47:52;;;;;;;9.13;6.57;;;;;;;10.40;22.90;100936.78;688458;28;783;-85
2022/03/12 00:48:13;;;;;;;10.50;6.67;;;;;;;10.36;22.71;100927.97;690805;28;1168;-84
2022/03/12 00:48:34;;;;;;;11.48;6.80;;;;;;;10.44;22.69;100929.94;687860;28;1137;-85
2022/03/12 00:48:55;;;;;;;11.55;7.13;;;;;;;10.39;22.86;100920.25;685719;28;1335;-85
2022/03/12 00:49:15;;;;;;;10.57;7.20;;;;;;;10.44;22.66;100929.94;693424;28;1230;-84
2022/03/12 00:49:36;;;;;;;10.40;7.50;;;;;;;10.42;22.75;100927.28;690651;28;795;-85
2022/03/12 00:49:56;;;;;;;9.25;6.80;;;;;;;10.40;22.65;100927.22;690824;28;1262;-85
2022/03/12 00:50:17;;;;;;;9.87;6.83;;;;;;;10.42;22.71;100929.88;687756;28;1271;-85
2022/03/12 00:50:38;;;;;;;9.85;7.03;;;;;;;10.38;22.88;100925.44;690590;28;1376;-85
2022/03/12 00:50:59;;;;;;;9.13;7.00;;;;;;;10.40;22.57;100924.63;690964;28;1398;-85
2022/03/12 00:51:19;;;;;;;7.68;6.53;;;;;;;10.43;22.74;100928.19;688237;28;1293;-85
2022/03/12 00:51:41;;;;;;;7.30;6.20;;;;;;;10.45;22.94;100936.94;688189;28;1295;-85
2022/03/12 00:52:02;;;;;;;7.20;6.40;;;;;;;10.41;22.69;100923.81;688366;28;1121;-85
2022/03/12 00:52:22;;;;;;;7.10;6.40;;;;;;;10.46;22.70;100937.00;690985;28;1085;-85
2022/03/12 00:52:43;;;;;;;6.70;6.10;;;;;;;10.37;22.63;100921.03;690786;28;1981;-85
2022/03/12 00:53:03;;;;;;;8.20;6.03;;;;;;;10.37;22.84;100923.63;688330;28;1080;-85
2022/03/12 00:53:24;;;;;;;9.27;6.25;;;;;;;10.41;22.86;100929.03;690990;28;1200;-85
2022/03/12 00:53:44;;;;;;;10.43;6.77;;;;;;;10.33;23.02;100927.88;693726;28;1153;-85
2022/03/12 00:54:18;;;;;;;8.73;6.88;;;;;;;10.38;22.84;100935.88;688257;28;816;-84
2022/03/12 00:54:39;;;;;;;10.55;7.32;;;;;;;10.38;23.06;100936.72;693278;28;1579;-85
2022/03/12 00:54:59;;;;;;;10.77;7.30;;;;;;;10.34;23.14;100923.53;693775;28;1281;-85
2022/03/12 00:55:20;;;;;;;10.90;7.30;;;;;;;10.33;23.08;100922.66;690957;28;1048;-85
2022/03/12 00:55:41;;;;;;;9.40;7.00;;;;;;;10.39;22.75;100933.28;691114;28;1250;-84
2022/03/12 00:56:02;;;;;;;8.50;6.65;;;;;;;10.48;22.52;100937.00;690953;28;1007;-85
2022/03/12 00:56:23;;;;;;;8.88;6.72;;;;;;;10.46;22.78;100939.59;688927;28;1503;-85
2022/03/12 00:56:43;;;;;;;10.02;7.00;;;;;;;10.37;22.66;100923.63;690709;28;830;-85
2022/03/12 00:57:04;;;;;;;10.43;6.83;;;;;;;10.45;22.98;100929.97;693617;28;1240;-85
2022/03/12 00:57:24;;;;;;;12.27;6.50;;;;;;;10.49;22.67;100930.94;696358;28;1191;-85
2022/03/12 00:57:45;;;;;;;11.55;6.70;;;;;;;10.51;22.64;100930.16;696441;28;1179;-85
2022/03/12 00:58:05;;;;;;;11.50;6.80;;;;;;;10.46;22.84;100928.25;696299;28;1271;-84
2022/03/12 00:58:26;;;;;;;10.07;6.80;;;;;;;10.48;22.55;100931.78;692088;28;1171;-85
2022/03/12 00:58:47;;;;;;;9.27;6.37;;;;;;;10.47;22.78;100925.72;693811;28;1185;-85
2022/03/12 00:59:08;;;;;;;10.63;6.30;;;;;;;10.51;22.96;100929.31;695417;28;1230;-85
2022/03/12 00:59:28;;;;;;;9.50;6.55;;;;;;;10.49;22.61;100923.13;695371;28;1307;-85
2022/03/12 00:59:49;;;;;;;10.60;6.82;;;;;;;10.49;22.70;100923.13;690669;28;1292;-85
2022/03/12 01:00:17;;;;;;;10.27;6.88;;;;;;;10.46;22.75;100923.03;690781;28;1236;-85
2022/03/12 01:00:38;;;;;;;8.48;6.40;;;;;;;10.49;23.03;100933.56;691014;28;870;-87
2022/03/12 01:00:58;;;;;;;7.93;6.57;;;;;;;10.42;22.93;100916.84;691051;28;1061;-87
2022/03/12 01:01:19;;;;;;;8.83;6.70;;;;;;;10.43;22.88;100921.22;694446;28;1241;-87
2022/03/12 01:01:41;;;;;;;9.30;6.80;;;;;;;10.40;23.08;100919.41;693636;28;1331;-87
2022/03/12 01:02:02;;;;;;;8.85;6.88;;;;;;;10.48;22.72;100926.56;693670;28;1286;-86
2022/03/12 01:02:22;;;;;;;7.68;6.70;;;;;;;10.43;22.84;100926.44;690936;28;918;-87
2022/03/12 01:02:43;;;;;;;7.50;6.70;;;;;;;10.47;22.74;100927.41;691002;28;771;-87
2022/03/12 01:03:04;;;;;;;8.00;6.50;;;;;;;10.49;22.85;100929.25;690911;28;1136;-87
2022/03/12 01:03:25;;;;;;;8.23;6.60;;;;;;;10.44;22.60;100919.50;693806;28;1099;-86
2022/03/12 01:03:45;;;;;;;8.13;6.43;;;;;;;10.40;23.00;100918.53;693792;28;844;-88
2022/03/12 01:04:06;;;;;;;8.37;6.40;;;;;;;10.51;22.78;100935.38;690854;28;1305;-87
2022/03/12 01:04:26;;;;;;;8.75;6.40;;;;;;;10.45;22.94;100927.34;690995;28;1545;-86
2022/03/12 01:04:47;;;;;;;9.85;6.78;;;;;;;10.41;22.92;100920.28;691025;28;1199;-86
2022/03/12 01:05:08;;;;;;;9.80;6.70;;;;;;;10.49;22.91;100923.13;695296;28;1193;-85
2022/03/12 01:05:42;;;;;;;12.07;6.75;;;;;;;10.54;22.73;100927.66;690524;28;1267;-87
2022/03/12 01:06:05;;;;;;;12.38;6.90;;;;;;;10.54;22.97;100921.56;693647;28;1000;-87
2022/03/12 01:06:26;;;;;;;10.65;7.22;;;;;;;10.59;22.77;100930.41;690971;28;1286;-87
2022/03/12 01:06:47;;;;;;;8.10;6.80;;;;;;;10.53;22.50;100919.78;690988;28;1161;-87
2022/03/12 01:07:10;;;;;;;8.45;6.55;;;;;;;10.62;22.57;100925.28;688116;28;1193;-87
2022/03/12 01:07:30;;;;;;;8.63;6.07;;;;;;;10.57;22.51;100912.94;693665;28;1568;-87
2022/03/12 01:07:51;;;;;;;9.83;6.83;;;;;;;10.59;22.71;100919.97;696581;28;1364;-87
2022/03/12 01:08:12;;;;;;;9.15;6.80;;;;;;;10.56;22.38;100914.66;693634;28;996;-86
2022/03/12 01:08:34;;;;;;;8.30;6.87;;;;;;;10.62;22.58;100925.28;688294;28;1183;-87
2022/03/12 01:08:55;;;;;;;7.22;6.25;;;;;;;10.60;22.60;100919.13;688181;28;1270;-87
2022/03/12 01:09:15;;;;;;;9.05;6.50;;;;;;;10.65;22.59;100924.50;690699;28;1409;-87
2022/03/12 01:09:57;;;;;;;10.05;6.90;;;;;;;10.64;22.64;100923.59;687862;28;1208;-87
2022/03/12 01:10:18;;;;;;;9.65;6.95;;;;;;;10.61;22.59;100923.50;693380;28;1296;-87
2022/03/12 01:10:38;;;;;;;9.80;6.80;;;;;;;10.62;22.39;100925.28;690988;28;1205;-87
2022/03/12 01:11:04;;;;;;;10.70;7.10;;;;;;;10.58;22.70;100913.00;690946;28;1288;-87
2022/03/12 01:11:24;;;;;;;8.90;6.72;;;;;;;10.55;22.50;100905.06;690904;28;1094;-87
2022/03/12 01:11:45;;;;;;;8.80;6.95;;;;;;;10.62;22.71;100921.81;693721;28;742;-87
2022/03/12 01:12:07;;;;;;;9.82;6.95;;;;;;;10.55;22.53;100921.63;690271;28;1226;-87
2022/03/12 01:12:28;;;;;;;11.10;7.35;;;;;;;10.58;22.75;100925.16;686327;28;1256;-87
2022/03/12 01:13:04;;;;;;;10.95;7.28;;;;;;;10.51;22.87;100914.50;690836;28;1906;-87
2022/03/12 01:13:25;;;;;;;10.20;7.68;;;;;;;10.58;22.84;100919.91;685592;28;814;-87
2022/03/12 01:13:46;;;;;;;11.60;7.82;;;;;;;10.60;22.65;100926.06;690900;28;1388;-86
2022/03/12 01:14:07;;;;;;;12.50;7.63;;;;;;;10.63;22.51;100926.19;690725;28;989;-87
2022/03/12 01:14:32;;;;;;;10.35;6.68;;;;;;;10.53;22.85;100917.19;693728;28;1247;-87
2022/03/12 01:14:52;;;;;;;11.13;6.90;;;;;;;10.51;22.95;100914.50;696393;28;1106;-87
2022/03/12 01:15:16;;;;;;;9.23;6.93;;;;;;;10.52;22.44;100915.41;693680;28;870;-87
2022/03/12 01:15:37;;;;;;;8.85;7.05;;;;;;;10.55;23.20;100923.31;690988;28;1093;-87
2022/03/12 01:15:58;;;;;;;8.48;6.85;;;;;;;10.48;22.79;100926.56;688280;28;1263;-87
2022/03/12 01:16:18;;;;;;;8.77;6.82;;;;;;;10.50;22.86;100919.72;687966;28;1306;-87
2022/03/12 01:16:39;;;;;;;8.50;6.50;;;;;;;10.44;22.65;100909.06;688264;28;1192;-87
2022/03/12 01:16:59;;;;;;;9.53;7.00;;;;;;;10.47;22.69;100919.59;688222;28;705;-87
2022/03/12 01:17:21;;;;;;;10.00;7.00;;;;;;;10.44;22.79;100917.75;693460;28;1072;-87
2022/03/12 01:17:41;;;;;;;10.20;7.13;;;;;;;10.47;22.85;100919.59;691007;28;1295;-85
2022/03/12 01:18:02;;;;;;;8.35;6.82;;;;;;;10.47;22.68;100922.19;688258;28;1279;-85
2022/03/12 01:19:06;;;;;;;8.13;6.80;;;;;;;10.51;23.11;100924.09;689732;28;1151;-87
2022/03/12 01:19:30;;;;;;;7.32;6.47;;;;;;;10.44;22.66;100920.38;690069;28;1553;-86
2022/03/12 01:19:50;;;;;;;8.20;6.70;;;;;;;10.40;22.75;100915.91;693567;28;1461;-86
2022/03/12 01:20:25;;;;;;;8.30;6.23;;;;;;;10.41;23.00;100909.84;693044;28;1205;-86
2022/03/12 01:20:47;;;;;;;8.20;6.22;;;;;;;10.36;23.00;100907.09;695069;28;1505;-86
2022/03/12 01:21:17;;;;;;;8.57;6.53;;;;;;;10.44;22.88;100925.59;696291;28;1272;-87
2022/03/12 01:21:38;;;;;;;8.00;6.18;;;;;;;10.40;22.72;100911.56;693782;28;1304;-87
2022/03/12 01:21:58;;;;;;;7.03;6.00;;;;;;;10.45;22.74;100919.53;693363;28;1227;-87
2022/03/12 01:22:23;;;;;;;7.07;6.10;;;;;;;10.46;22.75;100923.03;693939;28;1157;-85
2022/03/12 01:22:44;;;;;;;12.18;6.70;;;;;;;10.45;23.04;100918.66;695930;28;1027;-84
2022/03/12 01:23:06;;;;;;;13.00;6.83;;;;;;;10.41;22.61;100915.97;696311;28;1181;-84
2022/03/12 01:23:26;;;;;;;9.60;6.57;;;;;;;10.40;22.78;100913.31;693584;28;1224;-84
2022/03/12 01:23:48;;;;;;;8.32;6.28;;;;;;;10.51;22.49;100922.34;690793;28;1119;-84
2022/03/12 01:24:09;;;;;;;7.95;6.38;;;;;;;10.43;22.95;100913.38;691559;28;1815;-85
2022/03/12 01:24:32;;;;;;;8.38;6.60;;;;;;;10.48;22.91;100917.03;695257;28;1163;-85
2022/03/12 01:24:52;;;;;;;9.10;6.78;;;;;;;10.47;22.48;100911.75;696383;28;1270;-84
2022/03/12 01:25:13;;;;;;;12.88;6.82;;;;;;;10.54;22.93;100924.16;693529;28;1078;-84
2022/03/12 01:25:33;;;;;;;12.20;6.77;;;;;;;10.52;22.76;100923.25;690877;28;1242;-84
2022/03/12 01:25:54;;;;;;;11.65;6.43;;;;;;;10.52;22.86;100923.25;693552;28;1310;-84
2022/03/12 01:26:17;;;;;;;8.35;6.32;;;;;;;10.47;22.72;100910.06;693017;28;1199;-84
2022/03/12 01:26:39;;;;;;;8.90;6.40;;;;;;;10.53;22.82;100917.19;690397;28;1239;-85
2022/03/12 01:27:00;;;;;;;8.95;6.43;;;;;;;10.59;22.81;100935.63;691093;28;882;-85
2022/03/12 01:27:20;;;;;;;7.93;6.43;;;;;;;10.52;22.75;100920.63;693596;28;1080;-84
2022/03/12 01:27:41;;;;;;;8.67;6.63;;;;;;;10.47;22.86;100914.38;693653;28;1181;-85
2022/03/12 01:28:02;;;;;;;8.43;6.65;;;;;;;10.56;22.75;100932.91;693696;28;1291;-85
2022/03/12 01:28:23;;;;;;;8.27;6.45;;;;;;;10.47;22.72;100909.16;688979;28;1121;-85
2022/03/12 01:28:44;;;;;;;8.00;6.50;;;;;;;10.58;22.71;100933.88;690860;28;794;-84
2022/03/12 01:29:07;;;;;;;7.47;6.43;;;;;;;10.52;22.85;100918.03;690781;28;1464;-85
2022/03/12 01:29:28;;;;;;;9.20;6.72;;;;;;;10.53;22.62;100928.50;693476;28;1118;-84
2022/03/12 01:29:48;;;;;;;9.02;6.40;;;;;;;10.55;22.71;100920.72;693283;28;1164;-85
2022/03/12 01:30:10;;;;;;;8.88;6.25;;;;;;;10.54;22.80;100930.28;693397;28;1311;-87
2022/03/12 01:30:31;;;;;;;7.40;6.15;;;;;;;10.49;22.73;100925.72;690838;28;1235;-87
2022/03/12 01:30:54;;;;;;;7.68;6.13;;;;;;;10.53;23.00;100922.41;690821;28;1223;-84
2022/03/12 01:31:16;;;;;;;7.97;6.18;;;;;;;10.56;22.51;100925.09;688214;28;1089;-85
2022/03/12 01:31:37;;;;;;;7.82;6.28;;;;;;;10.53;22.62;100919.78;690126;28;1107;-85
2022/03/12 01:31:58;;;;;;;8.25;6.82;;;;;;;10.49;22.72;100915.28;690789;28;1258;-85
2022/03/12 01:32:18;;;;;;;9.53;6.90;;;;;;;10.59;22.75;100926.91;690649;28;1167;-85
2022/03/12 01:32:39;;;;;;;9.23;6.90;;;;;;;10.61;22.52;100933.94;690956;28;1938;-85
2022/03/12 01:32:59;;;;;;;8.60;6.45;;;;;;;10.57;22.65;100928.59;693612;28;858;-85
2022/03/12 01:33:20;;;;;;;7.57;6.30;;;;;;;10.55;22.85;100923.31;693504;28;1162;-86
2022/03/12 01:33:41;;;;;;;9.70;6.57;;;;;;;10.63;22.85;100937.50;691018;28;1058;-85
2022/03/12 01:34:03;;;;;;;9.63;6.60;;;;;;;10.56;22.68;100925.09;693551;28;1380;-85
2022/03/12 01:34:23;;;;;;;8.68;6.50;;;;;;;10.56;22.87;100925.09;690905;28;891;-85
2022/03/12 01:34:44;;;;;;;7.73;6.33;;;;;;;10.55;22.83;100934.66;690955;28;788;-85
2022/03/12 01:35:05;;;;;;;7.70;6.30;;;;;;;10.61;22.58;100939.16;688108;28;1266;-86
2022/03/12 01:35:26;;;;;;;7.63;6.35;;;;;;;10.61;22.52;100933.94;690869;28;1543;-84
2022/03/12 01:35:47;;;;;;;7.10;6.10;;;;;;;10.66;22.74;100932.38;692946;28;1263;-85
2022/03/12 01:36:07;;;;;;;7.30;6.35;;;;;;;10.57;22.76;100918.16;696216;28;1125;-85
2022/03/12 01:36:28;;;;;;;7.00;6.30;;;;;;;10.61;22.40;100928.72;690838;28;1088;-85
2022/03/12 01:36:49;;;;;;;8.50;6.43;;;;;;;10.62;22.55;100919.19;693742;28;794;-85
2022/03/12 01:37:10;;;;;;;9.10;6.70;;;;;;;10.62;22.36;100927.88;687916;28;1251;-85
2022/03/12 01:37:31;;;;;;;10.50;7.07;;;;;;;10.62;22.40;100930.50;688014;28;827;-84
2022/03/12 01:37:55;;;;;;;9.63;6.97;;;;;;;10.61;22.40;100922.63;692970;28;1219;-85
2022/03/12 01:38:15;;;;;;;9.37;6.80;;;;;;;10.67;22.38;100928.03;690759;28;1187;-85
2022/03/12 01:38:47;;;;;;;9.18;6.45;;;;;;;10.69;22.58;100937.69;693519;28;1184;-85
2022/03/12 01:39:08;;;;;;;8.73;6.57;;;;;;;10.61;22.67;100923.50;690715;28;1363;-85
2022/03/12 01:39:28;;;;;;;7.13;6.40;;;;;;;10.60;22.70;100924.34;693441;28;1387;-85
2022/03/12 01:39:49;;;;;;;7.47;6.60;;;;;;;10.63;22.49;100929.66;693334;28;1188;-85
2022/03/12 01:40:11;;;;;;;8.88;6.40;;;;;;;10.59;22.66;100919.97;696119;28;1277;-85
2022/03/12 01:40:32;;;;;;;8.73;6.40;;;;;;;10.58;22.42;100918.22;690887;28;1360;-85
2022/03/12 01:40:53;;;;;;;8.50;6.30;;;;;;;10.62;22.63;100925.28;691026;28;873;-85
2022/03/12 01:41:20;;;;;;;7.33;6.23;;;;;;;10.67;22.50;100938.47;690819;28;1060;-85
2022/03/12 01:41:43;;;;;;;10.45;6.40;;;;;;;10.66;22.56;100942.81;690894;28;1313;-85
2022/03/12 01:42:07;;;;;;;10.07;6.13;;;;;;;10.68;22.59;100932.41;687994;28;1273;-86
2022/03/12 01:42:27;;;;;;;8.73;6.00;;;;;;;10.59;22.79;100926.91;688132;28;808;-85
2022/03/12 01:42:49;;;;;;;8.20;6.20;;;;;;;10.55;22.76;100913.78;693499;28;1204;-86
2022/03/12 01:43:10;;;;;;;7.88;6.18;;;;;;;10.63;22.44;100932.25;696186;28;1294;-85
2022/03/12 01:43:32;;;;;;;6.90;6.20;;;;;;;10.59;22.72;100924.31;690691;28;1216;-85
2022/03/12 01:43:53;;;;;;;6.90;6.20;;;;;;;10.54;22.64;100917.22;688225;28;1233;-85
2022/03/12 01:44:16;;;;;;;7.55;6.50;;;;;;;10.53;22.64;100915.47;693369;28;1199;-85
2022/03/12 01:44:37;;;;;;;9.75;6.45;;;;;;;10.55;22.79;100915.50;693710;28;1255;-85
2022/03/12 01:44:58;;;;;;;11.27;6.35;;;;;;;10.57;22.65;100929.47;688246;28;1279;-85
2022/03/12 01:45:24;;;;;;;10.73;6.35;;;;;;;10.54;22.70;100926.78;690783;28;1092;-85
2022/03/12 01:45:44;;;;;;;7.18;6.30;;;;;;;10.62;22.78;100930.50;690989;28;886;-85
2022/03/12 01:46:09;;;;;;;6.80;6.03;;;;;;;10.57;22.53;100919.03;693478;28;1215;-85
2022/03/12 01:46:35;;;;;;;7.80;6.20;;;;;;;10.65;22.73;100930.63;696301;28;1283;-85
2022/03/12 01:46:56;;;;;;;7.53;5.93;;;;;;;10.58;22.47;100920.81;696270;28;1338;-85